Four Lakes, WA (99014)

7:05 AM PDT on May 25, 2015 (GMT -0700)
Hayford | | Change Station
CLOSE
Current Station
Personal Weather Station
Location: Cheney, WA
Elevation: 2441 ft
Nearby Weather Stations

Elev 2441 ft 47.58 °N, 117.54 °W | Updated 1 minute ago

Overcast
Overcast
54.5 °F
Feels Like 54.5 °F
N
1.7
Wind Variable Wind from ESE

Today
High -- | Low -- °F
--% Chance of Precip.
Yesterday
High -- | Low -- °F
Precip. -- in
5:02 AM 8:32 PM
Waxing Crescent, 49% visible
Pressure 29.83 in
Visibility 10.0 miles
Clouds Few 700 ft
Scattered Clouds 4800 ft
Mostly Cloudy 8000 ft
Overcast 20000 ft
Dew Point 50 °F
Humidity 85%
Rainfall 0.17 in
Snow Depth Not available.
UV 0 out of 12
Pollen 7.30 out of 12
Air Quality Not available.
Flu Activity Sporadic
METAR KGEG 251253Z 04003KT 10SM FEW007 SCT048 BKN080 OVC200 13/11 A2986 RMK AO2 RAE03 SLP101 CB DSNT NE SHRA DSNT NE P0000 T01280106 $

More Conditions Fewer Conditions

Pressure 29.83 in
Visibility 10.0 miles
Clouds Few 700 ft
Scattered Clouds 4800 ft
Mostly Cloudy 8000 ft
Overcast 20000 ft
Dew Point 50 °F
Humidity 85%
Rainfall 0.17 in
Snow Depth Not available.
UV 0 out of 12
Pollen 7.30 out of 12
Air Quality Not available.
Flu Activity Sporadic
METAR KGEG 251253Z 04003KT 10SM FEW007 SCT048 BKN080 OVC200 13/11 A2986 RMK AO2 RAE03 SLP101 CB DSNT NE SHRA DSNT NE P0000 T01280106 $

More Conditions Fewer Conditions

10-Day Weather Forecast

Almanac

Astronomy

May. 25, 2015 Rise Set
Actual Time
Civil Twilight
Nautical Twilight
Astronomical Twilight
Moon
Length of Visible Light
Length of Day
Tomorrow will be .
, % of the Moon is Illuminated

Today's Extremes

State Highs State Lows

Community

WunderPhotos

Upload Photos

1,824,020 photos uploaded!

WunderBlogs® & News

Nearby

Air Quality

  Air Quality AQ Index Pollutant
Not available.

Snow Depth

Station Depth Elevation

Earthquake Activity

City Distance Mag. Time & Date
Minimum magnitude displayed is 2.5.

Coastal Water Temperatures

Place Temperature

Stations

Nearby Weather Stations

Station Location Temp. Windchill Dew Point Humidity Wind Precip. Elev Updated Type